sensor_id;sensor_type;location;lat;lon;timestamp;temperature;humidity
24176;DHT22;12324;48.146;11.502;2023-12-20T00:02:11;5.90;99.90
24176;DHT22;12324;48.146;11.502;2023-12-20T00:04:38;6.00;99.90
24176;DHT22;12324;48.146;11.502;2023-12-20T00:07:05;6.00;99.90
24176;DHT22;12324;48.146;11.502;2023-12-20T00:09:32;5.90;99.90
24176;DHT22;12324;48.146;11.502;2023-12-20T00:11:58;5.90;99.90
24176;DHT22;12324;48.146;11.502;2023-12-20T00:14:25;5.90;99.90
24176;DHT22;12324;48.146;11.502;2023-12-20T00:16:52;6.00;99.90
24176;DHT22;12324;48.146;11.502;2023-12-20T00:19:19;6.10;99.90
24176;DHT22;12324;48.146;11.502;2023-12-20T00:21:46;6.10;99.90
24176;DHT22;12324;48.146;11.502;2023-12-20T00:24:13;6.10;99.90
24176;DHT22;12324;48.146;11.502;2023-12-20T00:26:40;6.30;99.90
24176;DHT22;12324;48.146;11.502;2023-12-20T00:29:06;6.30;99.90
24176;DHT22;12324;48.146;11.502;2023-12-20T00:31:33;6.20;99.90
24176;DHT22;12324;48.146;11.502;2023-12-20T00:34:00;6.30;99.90
24176;DHT22;12324;48.146;11.502;2023-12-20T00:36:27;6.40;99.90
24176;DHT22;12324;48.146;11.502;2023-12-20T00:38:53;6.30;99.90
24176;DHT22;12324;48.146;11.502;2023-12-20T00:41:20;6.40;99.90
24176;DHT22;12324;48.146;11.502;2023-12-20T00:43:47;6.40;99.90
24176;DHT22;12324;48.146;11.502;2023-12-20T00:46:14;6.30;99.90
24176;DHT22;12324;48.146;11.502;2023-12-20T00:48:40;6.40;99.90
24176;DHT22;12324;48.146;11.502;2023-12-20T00:51:08;6.40;99.90
24176;DHT22;12324;48.146;11.502;2023-12-20T00:53:35;6.30;99.90
24176;DHT22;12324;48.146;11.502;2023-12-20T00:56:02;6.30;99.90
24176;DHT22;12324;48.146;11.502;2023-12-20T00:58:29;6.30;99.90
24176;DHT22;12324;48.146;11.502;2023-12-20T01:00:56;6.30;99.90
24176;DHT22;12324;48.146;11.502;2023-12-20T01:03:24;6.40;99.90
24176;DHT22;12324;48.146;11.502;2023-12-20T01:05:51;6.30;99.90
24176;DHT22;12324;48.146;11.502;2023-12-20T01:08:18;6.40;99.90
24176;DHT22;12324;48.146;11.502;2023-12-20T01:10:45;6.30;99.90
24176;DHT22;12324;48.146;11.502;2023-12-20T01:13:13;6.30;99.90
24176;DHT22;12324;48.146;11.502;2023-12-20T01:15:40;6.40;99.90
24176;DHT22;12324;48.146;11.502;2023-12-20T01:18:07;6.40;99.90
24176;DHT22;12324;48.146;11.502;2023-12-20T01:20:33;6.40;99.90
24176;DHT22;12324;48.146;11.502;2023-12-20T01:23:00;6.50;99.90
24176;DHT22;12324;48.146;11.502;2023-12-20T01:25:27;6.40;99.90
24176;DHT22;12324;48.146;11.502;2023-12-20T01:27:54;6.40;99.90
24176;DHT22;12324;48.146;11.502;2023-12-20T01:30:20;6.40;99.90
24176;DHT22;12324;48.146;11.502;2023-12-20T01:32:47;6.50;99.90
24176;DHT22;12324;48.146;11.502;2023-12-20T01:35:14;6.50;99.90
24176;DHT22;12324;48.146;11.502;2023-12-20T01:37:41;6.50;99.90
24176;DHT22;12324;48.146;11.502;2023-12-20T01:40:09;6.50;99.90
24176;DHT22;12324;48.146;11.502;2023-12-20T01:42:36;6.60;99.90
24176;DHT22;12324;48.146;11.502;2023-12-20T01:45:03;6.50;99.90
24176;DHT22;12324;48.146;11.502;2023-12-20T01:47:30;6.60;99.90
24176;DHT22;12324;48.146;11.502;2023-12-20T01:49:57;6.50;99.90
24176;DHT22;12324;48.146;11.502;2023-12-20T01:52:25;6.60;99.90
24176;DHT22;12324;48.146;11.502;2023-12-20T01:54:52;6.60;99.90
24176;DHT22;12324;48.146;11.502;2023-12-20T01:57:21;6.50;99.90
24176;DHT22;12324;48.146;11.502;2023-12-20T01:59:48;6.60;99.90
24176;DHT22;12324;48.146;11.502;2023-12-20T02:02:15;6.60;99.90
24176;DHT22;12324;48.146;11.502;2023-12-20T02:04:41;6.50;99.90
24176;DHT22;12324;48.146;11.502;2023-12-20T02:07:08;6.60;99.90
24176;DHT22;12324;48.146;11.502;2023-12-20T02:09:36;6.50;99.90
24176;DHT22;12324;48.146;11.502;2023-12-20T02:12:05;6.60;99.90
24176;DHT22;12324;48.146;11.502;2023-12-20T02:14:32;6.60;99.90
24176;DHT22;12324;48.146;11.502;2023-12-20T02:16:59;6.60;99.90
24176;DHT22;12324;48.146;11.502;2023-12-20T02:19:25;6.60;99.90
24176;DHT22;12324;48.146;11.502;2023-12-20T02:22:13;6.70;99.90
24176;DHT22;12324;48.146;11.502;2023-12-20T02:24:41;6.60;99.90
24176;DHT22;12324;48.146;11.502;2023-12-20T02:27:08;6.60;99.90
24176;DHT22;12324;48.146;11.502;2023-12-20T02:29:36;6.80;99.90
24176;DHT22;12324;48.146;11.502;2023-12-20T02:32:03;6.80;99.90
24176;DHT22;12324;48.146;11.502;2023-12-20T02:34:29;6.90;99.90
24176;DHT22;12324;48.146;11.502;2023-12-20T02:36:56;6.90;99.90
24176;DHT22;12324;48.146;11.502;2023-12-20T02:39:23;6.90;99.90
24176;DHT22;12324;48.146;11.502;2023-12-20T02:41:50;6.90;99.90
24176;DHT22;12324;48.146;11.502;2023-12-20T02:44:17;6.90;99.90
24176;DHT22;12324;48.146;11.502;2023-12-20T02:46:44;6.90;99.90
24176;DHT22;12324;48.146;11.502;2023-12-20T02:49:11;6.80;99.90
24176;DHT22;12324;48.146;11.502;2023-12-20T02:51:38;6.80;99.90
24176;DHT22;12324;48.146;11.502;2023-12-20T02:54:05;6.90;99.90
24176;DHT22;12324;48.146;11.502;2023-12-20T02:56:32;6.90;99.90
24176;DHT22;12324;48.146;11.502;2023-12-20T02:58:59;6.90;99.90
24176;DHT22;12324;48.146;11.502;2023-12-20T03:01:27;7.00;99.90
24176;DHT22;12324;48.146;11.502;2023-12-20T03:03:54;7.00;99.90
24176;DHT22;12324;48.146;11.502;2023-12-20T03:06:21;7.00;99.90
24176;DHT22;12324;48.146;11.502;2023-12-20T03:08:47;7.00;99.90
24176;DHT22;12324;48.146;11.502;2023-12-20T03:11:14;7.00;99.90
24176;DHT22;12324;48.146;11.502;2023-12-20T03:13:41;7.00;99.90
24176;DHT22;12324;48.146;11.502;2023-12-20T03:16:09;7.00;99.90
24176;DHT22;12324;48.146;11.502;2023-12-20T03:18:37;7.00;99.90
24176;DHT22;12324;48.146;11.502;2023-12-20T03:21:04;7.00;99.90
24176;DHT22;12324;48.146;11.502;2023-12-20T03:23:31;7.00;99.90
24176;DHT22;12324;48.146;11.502;2023-12-20T03:26:00;7.00;99.90
24176;DHT22;12324;48.146;11.502;2023-12-20T03:28:27;7.00;99.90
24176;DHT22;12324;48.146;11.502;2023-12-20T03:30:54;7.00;99.90
24176;DHT22;12324;48.146;11.502;2023-12-20T03:33:21;7.10;99.90
24176;DHT22;12324;48.146;11.502;2023-12-20T03:35:48;7.00;99.90
24176;DHT22;12324;48.146;11.502;2023-12-20T03:38:14;6.90;99.90
24176;DHT22;12324;48.146;11.502;2023-12-20T03:40:41;7.00;99.90
24176;DHT22;12324;48.146;11.502;2023-12-20T03:43:08;6.90;99.90
24176;DHT22;12324;48.146;11.502;2023-12-20T03:45:35;6.90;99.90
24176;DHT22;12324;48.146;11.502;2023-12-20T03:48:02;6.90;99.90
24176;DHT22;12324;48.146;11.502;2023-12-20T03:50:29;6.80;99.90
24176;DHT22;12324;48.146;11.502;2023-12-20T03:52:56;6.80;99.90
24176;DHT22;12324;48.146;11.502;2023-12-20T03:55:23;6.80;99.90
24176;DHT22;12324;48.146;11.502;2023-12-20T03:57:50;6.80;99.90
24176;DHT22;12324;48.146;11.502;2023-12-20T04:00:17;6.70;99.90
24176;DHT22;12324;48.146;11.502;2023-12-20T04:02:44;6.60;99.90
24176;DHT22;12324;48.146;11.502;2023-12-20T04:05:10;6.60;99.90
24176;DHT22;12324;48.146;11.502;2023-12-20T04:07:37;6.50;99.90
24176;DHT22;12324;48.146;11.502;2023-12-20T04:10:05;6.50;99.90
24176;DHT22;12324;48.146;11.502;2023-12-20T04:12:32;6.40;99.90
24176;DHT22;12324;48.146;11.502;2023-12-20T04:15:00;6.40;99.90
24176;DHT22;12324;48.146;11.502;2023-12-20T04:17:26;6.40;99.90
24176;DHT22;12324;48.146;11.502;2023-12-20T04:19:53;6.30;99.90
24176;DHT22;12324;48.146;11.502;2023-12-20T04:22:20;6.20;99.90
24176;DHT22;12324;48.146;11.502;2023-12-20T04:24:47;6.10;99.90
24176;DHT22;12324;48.146;11.502;2023-12-20T04:27:14;6.10;99.90
24176;DHT22;12324;48.146;11.502;2023-12-20T04:29:40;6.10;99.90
24176;DHT22;12324;48.146;11.502;2023-12-20T04:32:07;6.00;99.90
24176;DHT22;12324;48.146;11.502;2023-12-20T04:34:34;6.00;99.90
24176;DHT22;12324;48.146;11.502;2023-12-20T04:37:01;6.00;99.90
24176;DHT22;12324;48.146;11.502;2023-12-20T04:39:28;6.00;99.90
24176;DHT22;12324;48.146;11.502;2023-12-20T04:41:55;6.00;99.90
24176;DHT22;12324;48.146;11.502;2023-12-20T04:44:22;6.00;99.90
24176;DHT22;12324;48.146;11.502;2023-12-20T04:46:48;6.00;99.90
24176;DHT22;12324;48.146;11.502;2023-12-20T04:49:15;6.00;99.90
24176;DHT22;12324;48.146;11.502;2023-12-20T04:51:42;5.90;99.90
24176;DHT22;12324;48.146;11.502;2023-12-20T04:54:09;5.80;99.90
24176;DHT22;12324;48.146;11.502;2023-12-20T04:56:37;5.80;99.90
24176;DHT22;12324;48.146;11.502;2023-12-20T04:59:03;5.80;99.90
24176;DHT22;12324;48.146;11.502;2023-12-20T05:01:30;5.70;99.90
24176;DHT22;12324;48.146;11.502;2023-12-20T05:03:57;5.60;99.90
24176;DHT22;12324;48.146;11.502;2023-12-20T05:06:24;5.40;99.90
24176;DHT22;12324;48.146;11.502;2023-12-20T05:08:51;5.40;99.90
24176;DHT22;12324;48.146;11.502;2023-12-20T05:11:18;5.30;99.90
24176;DHT22;12324;48.146;11.502;2023-12-20T05:13:44;5.20;99.90
24176;DHT22;12324;48.146;11.502;2023-12-20T05:16:16;5.10;99.90
24176;DHT22;12324;48.146;11.502;2023-12-20T05:18:46;5.10;99.90
24176;DHT22;12324;48.146;11.502;2023-12-20T05:21:13;5.00;99.90
24176;DHT22;12324;48.146;11.502;2023-12-20T05:23:40;5.00;99.90
24176;DHT22;12324;48.146;11.502;2023-12-20T05:26:06;5.00;99.90
24176;DHT22;12324;48.146;11.502;2023-12-20T05:28:33;5.00;99.90
24176;DHT22;12324;48.146;11.502;2023-12-20T05:31:00;5.00;99.90
24176;DHT22;12324;48.146;11.502;2023-12-20T05:33:27;5.00;99.90
24176;DHT22;12324;48.146;11.502;2023-12-20T05:35:54;4.90;99.90
24176;DHT22;12324;48.146;11.502;2023-12-20T05:38:21;4.90;99.90
24176;DHT22;12324;48.146;11.502;2023-12-20T05:40:48;4.90;99.90
24176;DHT22;12324;48.146;11.502;2023-12-20T05:43:14;4.80;99.90
24176;DHT22;12324;48.146;11.502;2023-12-20T05:45:41;4.80;99.90
24176;DHT22;12324;48.146;11.502;2023-12-20T05:48:09;4.70;99.90
24176;DHT22;12324;48.146;11.502;2023-12-20T05:50:35;4.70;99.90
24176;DHT22;12324;48.146;11.502;2023-12-20T05:53:03;4.60;99.90
24176;DHT22;12324;48.146;11.502;2023-12-20T05:55:30;4.60;99.90
24176;DHT22;12324;48.146;11.502;2023-12-20T05:57:56;4.60;99.90
24176;DHT22;12324;48.146;11.502;2023-12-20T06:00:23;4.60;99.90
24176;DHT22;12324;48.146;11.502;2023-12-20T06:02:51;4.60;99.90
24176;DHT22;12324;48.146;11.502;2023-12-20T06:05:18;4.50;99.90
24176;DHT22;12324;48.146;11.502;2023-12-20T06:15:09;4.40;99.90
24176;DHT22;12324;48.146;11.502;2023-12-20T06:17:36;4.40;99.90
24176;DHT22;12324;48.146;11.502;2023-12-20T06:20:03;4.40;99.90
24176;DHT22;12324;48.146;11.502;2023-12-20T06:22:35;4.40;99.90
24176;DHT22;12324;48.146;11.502;2023-12-20T06:25:02;4.40;99.90
24176;DHT22;12324;48.146;11.502;2023-12-20T06:27:29;4.30;99.90
24176;DHT22;12324;48.146;11.502;2023-12-20T06:29:57;4.30;99.90
24176;DHT22;12324;48.146;11.502;2023-12-20T06:32:24;4.20;99.90
24176;DHT22;12324;48.146;11.502;2023-12-20T06:34:50;4.20;99.90
24176;DHT22;12324;48.146;11.502;2023-12-20T06:37:17;4.20;99.90
24176;DHT22;12324;48.146;11.502;2023-12-20T06:39:45;4.10;99.90
24176;DHT22;12324;48.146;11.502;2023-12-20T06:42:12;4.10;99.90
24176;DHT22;12324;48.146;11.502;2023-12-20T06:44:39;4.00;99.90
24176;DHT22;12324;48.146;11.502;2023-12-20T06:47:06;4.00;99.90
24176;DHT22;12324;48.146;11.502;2023-12-20T06:49:33;4.00;99.90
24176;DHT22;12324;48.146;11.502;2023-12-20T06:52:00;4.00;99.90
24176;DHT22;12324;48.146;11.502;2023-12-20T06:54:27;4.00;99.90
24176;DHT22;12324;48.146;11.502;2023-12-20T06:56:54;4.00;99.90
24176;DHT22;12324;48.146;11.502;2023-12-20T06:59:20;4.00;99.90
24176;DHT22;12324;48.146;11.502;2023-12-20T07:01:48;3.90;99.90
24176;DHT22;12324;48.146;11.502;2023-12-20T07:04:16;3.90;99.90
24176;DHT22;12324;48.146;11.502;2023-12-20T07:06:47;3.90;99.90
24176;DHT22;12324;48.146;11.502;2023-12-20T07:09:14;3.90;99.90
24176;DHT22;12324;48.146;11.502;2023-12-20T07:11:41;3.90;99.90
24176;DHT22;12324;48.146;11.502;2023-12-20T07:14:09;3.90;99.90
24176;DHT22;12324;48.146;11.502;2023-12-20T07:16:36;3.90;99.90
24176;DHT22;12324;48.146;11.502;2023-12-20T07:19:02;3.90;99.90
24176;DHT22;12324;48.146;11.502;2023-12-20T07:21:29;3.90;99.90
24176;DHT22;12324;48.146;11.502;2023-12-20T07:23:56;3.90;99.90
24176;DHT22;12324;48.146;11.502;2023-12-20T07:26:23;4.00;99.90
24176;DHT22;12324;48.146;11.502;2023-12-20T07:28:50;4.00;99.90
24176;DHT22;12324;48.146;11.502;2023-12-20T07:31:17;4.00;99.90
24176;DHT22;12324;48.146;11.502;2023-12-20T07:33:44;4.00;99.90
24176;DHT22;12324;48.146;11.502;2023-12-20T07:36:12;4.00;99.90
24176;DHT22;12324;48.146;11.502;2023-12-20T07:38:39;4.00;99.90
24176;DHT22;12324;48.146;11.502;2023-12-20T07:41:05;4.00;99.90
24176;DHT22;12324;48.146;11.502;2023-12-20T07:43:32;4.00;99.90
24176;DHT22;12324;48.146;11.502;2023-12-20T07:46:04;4.00;99.90
24176;DHT22;12324;48.146;11.502;2023-12-20T07:48:32;4.00;99.90
24176;DHT22;12324;48.146;11.502;2023-12-20T07:50:59;4.00;99.90
24176;DHT22;12324;48.146;11.502;2023-12-20T07:53:25;4.00;99.90
24176;DHT22;12324;48.146;11.502;2023-12-20T07:55:52;4.00;99.90
24176;DHT22;12324;48.146;11.502;2023-12-20T07:58:19;4.00;99.90
24176;DHT22;12324;48.146;11.502;2023-12-20T08:00:47;4.10;99.90
24176;DHT22;12324;48.146;11.502;2023-12-20T08:03:14;4.10;99.90
24176;DHT22;12324;48.146;11.502;2023-12-20T08:05:41;4.10;99.90
24176;DHT22;12324;48.146;11.502;2023-12-20T08:08:08;4.10;99.90
24176;DHT22;12324;48.146;11.502;2023-12-20T08:10:35;4.00;99.90
24176;DHT22;12324;48.146;11.502;2023-12-20T08:13:02;4.10;99.90
24176;DHT22;12324;48.146;11.502;2023-12-20T08:15:29;4.00;99.90
24176;DHT22;12324;48.146;11.502;2023-12-20T08:17:55;4.00;99.90
24176;DHT22;12324;48.146;11.502;2023-12-20T08:20:22;4.00;99.90
24176;DHT22;12324;48.146;11.502;2023-12-20T08:23:02;3.90;99.90
24176;DHT22;12324;48.146;11.502;2023-12-20T08:25:29;3.90;99.90
24176;DHT22;12324;48.146;11.502;2023-12-20T08:27:56;4.00;99.90
24176;DHT22;12324;48.146;11.502;2023-12-20T08:30:23;4.00;99.90
24176;DHT22;12324;48.146;11.502;2023-12-20T08:32:50;4.00;99.90
24176;DHT22;12324;48.146;11.502;2023-12-20T08:35:17;4.00;99.90
24176;DHT22;12324;48.146;11.502;2023-12-20T08:37:45;4.00;99.90
24176;DHT22;12324;48.146;11.502;2023-12-20T08:40:12;4.10;99.90
24176;DHT22;12324;48.146;11.502;2023-12-20T08:42:39;4.00;99.90
24176;DHT22;12324;48.146;11.502;2023-12-20T08:45:06;4.10;99.90
24176;DHT22;12324;48.146;11.502;2023-12-20T08:47:33;4.10;99.90
24176;DHT22;12324;48.146;11.502;2023-12-20T08:49:59;4.10;99.90
24176;DHT22;12324;48.146;11.502;2023-12-20T08:52:28;4.10;99.90
24176;DHT22;12324;48.146;11.502;2023-12-20T08:54:56;4.10;99.90
24176;DHT22;12324;48.146;11.502;2023-12-20T08:57:23;4.10;99.90
24176;DHT22;12324;48.146;11.502;2023-12-20T08:59:50;4.10;99.90
24176;DHT22;12324;48.146;11.502;2023-12-20T09:02:17;4.20;99.90
24176;DHT22;12324;48.146;11.502;2023-12-20T09:04:43;4.20;99.90
24176;DHT22;12324;48.146;11.502;2023-12-20T09:07:25;4.20;99.90
24176;DHT22;12324;48.146;11.502;2023-12-20T09:09:53;4.30;99.90
24176;DHT22;12324;48.146;11.502;2023-12-20T09:12:20;4.30;99.90
24176;DHT22;12324;48.146;11.502;2023-12-20T09:14:48;4.30;99.90
24176;DHT22;12324;48.146;11.502;2023-12-20T09:17:16;4.30;99.90
24176;DHT22;12324;48.146;11.502;2023-12-20T09:19:43;4.40;99.90
24176;DHT22;12324;48.146;11.502;2023-12-20T09:22:11;4.30;99.90
24176;DHT22;12324;48.146;11.502;2023-12-20T09:24:38;4.30;99.90
24176;DHT22;12324;48.146;11.502;2023-12-20T09:27:05;4.30;99.90
24176;DHT22;12324;48.146;11.502;2023-12-20T09:29:32;4.40;99.90
24176;DHT22;12324;48.146;11.502;2023-12-20T09:31:59;4.40;99.90
24176;DHT22;12324;48.146;11.502;2023-12-20T09:34:26;4.50;99.90
24176;DHT22;12324;48.146;11.502;2023-12-20T09:36:53;4.50;99.90
24176;DHT22;12324;48.146;11.502;2023-12-20T09:39:21;4.40;99.90
24176;DHT22;12324;48.146;11.502;2023-12-20T09:41:59;4.40;99.90
24176;DHT22;12324;48.146;11.502;2023-12-20T09:44:27;4.40;99.90
24176;DHT22;12324;48.146;11.502;2023-12-20T09:46:55;4.40;99.90
24176;DHT22;12324;48.146;11.502;2023-12-20T09:49:22;4.40;99.90
24176;DHT22;12324;48.146;11.502;2023-12-20T09:51:53;4.40;99.90
24176;DHT22;12324;48.146;11.502;2023-12-20T09:54:21;4.50;99.90
24176;DHT22;12324;48.146;11.502;2023-12-20T09:56:48;4.50;99.90
24176;DHT22;12324;48.146;11.502;2023-12-20T09:59:15;4.50;99.90
24176;DHT22;12324;48.146;11.502;2023-12-20T10:01:42;4.60;99.90
24176;DHT22;12324;48.146;11.502;2023-12-20T10:04:12;4.60;99.90
24176;DHT22;12324;48.146;11.502;2023-12-20T10:06:55;4.60;99.90
24176;DHT22;12324;48.146;11.502;2023-12-20T10:09:24;4.60;99.90
24176;DHT22;12324;48.146;11.502;2023-12-20T10:11:54;4.70;99.90
24176;DHT22;12324;48.146;11.502;2023-12-20T10:14:21;4.70;99.90
24176;DHT22;12324;48.146;11.502;2023-12-20T10:16:49;4.80;99.90
24176;DHT22;12324;48.146;11.502;2023-12-20T10:19:17;4.80;99.90
24176;DHT22;12324;48.146;11.502;2023-12-20T10:21:45;4.90;99.90
24176;DHT22;12324;48.146;11.502;2023-12-20T10:24:17;4.80;99.90
24176;DHT22;12324;48.146;11.502;2023-12-20T10:26:44;4.90;99.90
24176;DHT22;12324;48.146;11.502;2023-12-20T10:29:17;4.90;99.90
24176;DHT22;12324;48.146;11.502;2023-12-20T10:31:44;4.80;99.90
24176;DHT22;12324;48.146;11.502;2023-12-20T10:34:12;4.80;99.90
24176;DHT22;12324;48.146;11.502;2023-12-20T10:36:39;4.90;99.90
24176;DHT22;12324;48.146;11.502;2023-12-20T10:39:06;4.90;99.90
24176;DHT22;12324;48.146;11.502;2023-12-20T10:41:36;4.90;99.90
24176;DHT22;12324;48.146;11.502;2023-12-20T10:44:08;4.90;99.90
24176;DHT22;12324;48.146;11.502;2023-12-20T10:46:37;4.90;99.90
24176;DHT22;12324;48.146;11.502;2023-12-20T10:49:05;4.90;99.90
24176;DHT22;12324;48.146;11.502;2023-12-20T10:51:34;4.90;99.90
24176;DHT22;12324;48.146;11.502;2023-12-20T10:54:01;4.90;99.90
24176;DHT22;12324;48.146;11.502;2023-12-20T10:56:32;4.80;99.90
24176;DHT22;12324;48.146;11.502;2023-12-20T10:59:02;4.80;99.90
24176;DHT22;12324;48.146;11.502;2023-12-20T11:01:32;4.80;99.90
24176;DHT22;12324;48.146;11.502;2023-12-20T11:03:59;4.80;99.90
24176;DHT22;12324;48.146;11.502;2023-12-20T11:06:56;4.70;99.90
24176;DHT22;12324;48.146;11.502;2023-12-20T11:09:31;4.70;99.90
24176;DHT22;12324;48.146;11.502;2023-12-20T11:12:25;4.70;99.90
24176;DHT22;12324;48.146;11.502;2023-12-20T11:14:55;4.80;99.90
24176;DHT22;12324;48.146;11.502;2023-12-20T11:17:24;4.80;99.90
24176;DHT22;12324;48.146;11.502;2023-12-20T11:22:27;4.90;99.90
24176;DHT22;12324;48.146;11.502;2023-12-20T11:25:08;5.00;99.90
24176;DHT22;12324;48.146;11.502;2023-12-20T11:27:36;5.00;99.90
24176;DHT22;12324;48.146;11.502;2023-12-20T11:30:04;5.10;99.90
24176;DHT22;12324;48.146;11.502;2023-12-20T11:32:36;5.10;99.90
24176;DHT22;12324;48.146;11.502;2023-12-20T11:37:38;5.20;99.90
24176;DHT22;12324;48.146;11.502;2023-12-20T11:40:17;5.30;99.90
24176;DHT22;12324;48.146;11.502;2023-12-20T11:42:49;5.30;99.90
24176;DHT22;12324;48.146;11.502;2023-12-20T11:45:20;5.40;99.90
24176;DHT22;12324;48.146;11.502;2023-12-20T11:47:50;5.40;99.90
24176;DHT22;12324;48.146;11.502;2023-12-20T11:50:18;5.40;99.90
24176;DHT22;12324;48.146;11.502;2023-12-20T11:52:45;5.50;99.90
24176;DHT22;12324;48.146;11.502;2023-12-20T11:55:12;5.50;99.90
24176;DHT22;12324;48.146;11.502;2023-12-20T11:57:39;5.50;99.90
24176;DHT22;12324;48.146;11.502;2023-12-20T12:00:06;5.50;99.90
24176;DHT22;12324;48.146;11.502;2023-12-20T12:02:33;5.60;99.90
24176;DHT22;12324;48.146;11.502;2023-12-20T12:05:00;5.60;99.90
24176;DHT22;12324;48.146;11.502;2023-12-20T12:07:27;5.50;99.90
24176;DHT22;12324;48.146;11.502;2023-12-20T12:09:54;5.60;99.90
24176;DHT22;12324;48.146;11.502;2023-12-20T12:12:21;5.60;99.90
24176;DHT22;12324;48.146;11.502;2023-12-20T12:14:48;5.60;99.90
24176;DHT22;12324;48.146;11.502;2023-12-20T12:17:15;5.60;99.90
24176;DHT22;12324;48.146;11.502;2023-12-20T12:19:43;5.70;99.90
24176;DHT22;12324;48.146;11.502;2023-12-20T12:22:14;5.70;99.90
24176;DHT22;12324;48.146;11.502;2023-12-20T12:24:44;5.60;99.90
24176;DHT22;12324;48.146;11.502;2023-12-20T12:27:12;5.70;99.90
24176;DHT22;12324;48.146;11.502;2023-12-20T12:29:39;5.70;99.90
24176;DHT22;12324;48.146;11.502;2023-12-20T12:32:07;5.70;99.90
24176;DHT22;12324;48.146;11.502;2023-12-20T12:34:36;5.70;99.90
24176;DHT22;12324;48.146;11.502;2023-12-20T12:37:07;5.70;99.90
24176;DHT22;12324;48.146;11.502;2023-12-20T12:39:34;5.70;99.90
24176;DHT22;12324;48.146;11.502;2023-12-20T12:42:01;5.70;99.90
24176;DHT22;12324;48.146;11.502;2023-12-20T12:44:28;5.70;99.90
24176;DHT22;12324;48.146;11.502;2023-12-20T12:46:54;5.80;99.90
24176;DHT22;12324;48.146;11.502;2023-12-20T12:49:21;5.60;99.90
24176;DHT22;12324;48.146;11.502;2023-12-20T12:51:49;5.60;99.90
24176;DHT22;12324;48.146;11.502;2023-12-20T12:54:16;5.50;99.90
24176;DHT22;12324;48.146;11.502;2023-12-20T12:56:44;5.60;99.90
24176;DHT22;12324;48.146;11.502;2023-12-20T12:59:13;5.50;99.90
24176;DHT22;12324;48.146;11.502;2023-12-20T13:01:40;5.50;99.90
24176;DHT22;12324;48.146;11.502;2023-12-20T13:04:07;5.30;99.90
24176;DHT22;12324;48.146;11.502;2023-12-20T13:06:38;5.20;99.90
24176;DHT22;12324;48.146;11.502;2023-12-20T13:09:05;5.00;99.90
24176;DHT22;12324;48.146;11.502;2023-12-20T13:11:34;4.80;99.90
24176;DHT22;12324;48.146;11.502;2023-12-20T13:14:01;4.70;99.90
24176;DHT22;12324;48.146;11.502;2023-12-20T13:16:30;4.40;99.90
24176;DHT22;12324;48.146;11.502;2023-12-20T13:18:57;4.40;99.90
24176;DHT22;12324;48.146;11.502;2023-12-20T13:21:26;4.30;99.90
24176;DHT22;12324;48.146;11.502;2023-12-20T13:23:53;4.20;99.90
24176;DHT22;12324;48.146;11.502;2023-12-20T13:26:20;4.20;99.90
24176;DHT22;12324;48.146;11.502;2023-12-20T13:28:47;4.20;99.90
24176;DHT22;12324;48.146;11.502;2023-12-20T13:31:14;4.20;99.90
24176;DHT22;12324;48.146;11.502;2023-12-20T13:33:41;4.20;99.90
24176;DHT22;12324;48.146;11.502;2023-12-20T13:36:08;4.30;99.90
24176;DHT22;12324;48.146;11.502;2023-12-20T13:38:35;4.20;99.90
24176;DHT22;12324;48.146;11.502;2023-12-20T13:41:02;4.10;99.90
24176;DHT22;12324;48.146;11.502;2023-12-20T13:43:30;4.30;99.90
24176;DHT22;12324;48.146;11.502;2023-12-20T13:45:57;4.30;99.90
24176;DHT22;12324;48.146;11.502;2023-12-20T13:48:23;4.30;99.90
24176;DHT22;12324;48.146;11.502;2023-12-20T13:50:50;4.30;99.90
24176;DHT22;12324;48.146;11.502;2023-12-20T13:53:17;4.30;99.90
24176;DHT22;12324;48.146;11.502;2023-12-20T13:55:44;4.30;99.90
24176;DHT22;12324;48.146;11.502;2023-12-20T13:58:10;4.30;99.90
24176;DHT22;12324;48.146;11.502;2023-12-20T14:00:37;4.40;99.90
24176;DHT22;12324;48.146;11.502;2023-12-20T14:03:04;4.30;99.90
24176;DHT22;12324;48.146;11.502;2023-12-20T14:05:31;4.30;99.90
24176;DHT22;12324;48.146;11.502;2023-12-20T14:07:59;4.40;99.90
24176;DHT22;12324;48.146;11.502;2023-12-20T14:10:26;4.30;99.90
24176;DHT22;12324;48.146;11.502;2023-12-20T14:12:54;4.30;99.90
24176;DHT22;12324;48.146;11.502;2023-12-20T14:15:21;4.30;99.90
24176;DHT22;12324;48.146;11.502;2023-12-20T14:17:47;4.30;99.90
24176;DHT22;12324;48.146;11.502;2023-12-20T14:20:15;4.30;99.90
24176;DHT22;12324;48.146;11.502;2023-12-20T14:22:43;4.30;99.90
24176;DHT22;12324;48.146;11.502;2023-12-20T14:25:11;4.30;99.90
24176;DHT22;12324;48.146;11.502;2023-12-20T14:27:39;4.30;99.90
24176;DHT22;12324;48.146;11.502;2023-12-20T14:30:07;4.30;99.90
24176;DHT22;12324;48.146;11.502;2023-12-20T14:32:35;4.30;99.90
24176;DHT22;12324;48.146;11.502;2023-12-20T14:35:08;4.30;99.90
24176;DHT22;12324;48.146;11.502;2023-12-20T14:37:36;4.30;99.90
24176;DHT22;12324;48.146;11.502;2023-12-20T14:40:09;4.30;99.90
24176;DHT22;12324;48.146;11.502;2023-12-20T14:42:42;4.30;99.90
24176;DHT22;12324;48.146;11.502;2023-12-20T14:45:10;4.30;99.90
24176;DHT22;12324;48.146;11.502;2023-12-20T14:47:36;4.30;99.90
24176;DHT22;12324;48.146;11.502;2023-12-20T14:50:04;4.30;99.90
24176;DHT22;12324;48.146;11.502;2023-12-20T14:52:35;4.30;99.90
24176;DHT22;12324;48.146;11.502;2023-12-20T14:55:02;4.30;99.90
24176;DHT22;12324;48.146;11.502;2023-12-20T14:57:32;4.30;99.90
24176;DHT22;12324;48.146;11.502;2023-12-20T14:59:59;4.20;99.90
24176;DHT22;12324;48.146;11.502;2023-12-20T15:02:26;4.20;99.90
24176;DHT22;12324;48.146;11.502;2023-12-20T15:04:52;4.20;99.90
24176;DHT22;12324;48.146;11.502;2023-12-20T15:07:19;4.20;99.90
24176;DHT22;12324;48.146;11.502;2023-12-20T15:09:46;4.20;99.90
24176;DHT22;12324;48.146;11.502;2023-12-20T15:12:14;4.20;99.90
24176;DHT22;12324;48.146;11.502;2023-12-20T15:14:41;4.20;99.90
24176;DHT22;12324;48.146;11.502;2023-12-20T15:17:07;4.10;99.90
24176;DHT22;12324;48.146;11.502;2023-12-20T15:19:35;4.20;99.90
24176;DHT22;12324;48.146;11.502;2023-12-20T15:22:01;4.20;99.90
24176;DHT22;12324;48.146;11.502;2023-12-20T15:24:30;4.20;99.90
24176;DHT22;12324;48.146;11.502;2023-12-20T15:27:05;4.20;99.90
24176;DHT22;12324;48.146;11.502;2023-12-20T15:29:32;4.20;99.90
24176;DHT22;12324;48.146;11.502;2023-12-20T15:31:59;4.20;99.90
24176;DHT22;12324;48.146;11.502;2023-12-20T15:34:26;4.20;99.90
24176;DHT22;12324;48.146;11.502;2023-12-20T15:36:53;4.20;99.90
24176;DHT22;12324;48.146;11.502;2023-12-20T15:39:20;4.20;99.90
24176;DHT22;12324;48.146;11.502;2023-12-20T15:41:46;4.20;99.90
24176;DHT22;12324;48.146;11.502;2023-12-20T15:44:13;4.10;99.90
24176;DHT22;12324;48.146;11.502;2023-12-20T15:46:40;4.00;99.90